sensor_id;sensor_type;location;lat;lon;timestamp;pressure;altitude;pressure_sealevel;temperature;humidity
56912;BME280;42800;53.928;27.662;2023-04-24T00:01:13;97962.34;;;9.47;100.00
56912;BME280;42800;53.928;27.662;2023-04-24T00:03:41;97949.47;;;9.47;100.00
56912;BME280;42800;53.928;27.662;2023-04-24T00:06:06;97935.78;;;9.43;100.00
56912;BME280;42800;53.928;27.662;2023-04-24T00:08:33;97910.34;;;9.36;100.00
56912;BME280;42800;53.928;27.662;2023-04-24T00:10:59;97903.31;;;9.31;100.00
56912;BME280;42800;53.928;27.662;2023-04-24T00:13:25;97884.16;;;9.24;100.00
56912;BME280;42800;53.928;27.662;2023-04-24T00:15:51;97879.44;;;9.17;100.00
56912;BME280;42800;53.928;27.662;2023-04-24T00:18:17;97877.84;;;9.13;100.00
56912;BME280;42800;53.928;27.662;2023-04-24T00:20:43;97874.72;;;9.07;100.00
56912;BME280;42800;53.928;27.662;2023-04-24T00:23:10;97876.28;;;9.05;100.00
56912;BME280;42800;53.928;27.662;2023-04-24T00:25:35;97873.53;;;9.01;100.00
56912;BME280;42800;53.928;27.662;2023-04-24T00:28:01;97868.84;;;8.98;100.00
56912;BME280;42800;53.928;27.662;2023-04-24T00:30:27;97868.03;;;8.94;100.00
56912;BME280;42800;53.928;27.662;2023-04-24T00:32:54;97850.84;;;8.90;100.00
56912;BME280;42800;53.928;27.662;2023-04-24T00:35:20;97846.16;;;8.87;100.00
56912;BME280;42800;53.928;27.662;2023-04-24T00:37:46;97851.22;;;8.85;100.00
56912;BME280;42800;53.928;27.662;2023-04-24T00:40:12;97866.84;;;8.91;100.00
56912;BME280;42800;53.928;27.662;2023-04-24T00:42:38;97857.88;;;8.91;100.00
56912;BME280;42800;53.928;27.662;2023-04-24T00:45:06;97844.97;;;8.84;100.00
56912;BME280;42800;53.928;27.662;2023-04-24T00:47:32;97837.16;;;8.83;100.00
56912;BME280;42800;53.928;27.662;2023-04-24T00:50:00;97839.09;;;8.79;100.00
56912;BME280;42800;53.928;27.662;2023-04-24T00:52:27;97826.59;;;8.74;100.00
56912;BME280;42800;53.928;27.662;2023-04-24T00:54:54;97823.44;;;8.72;100.00
56912;BME280;42800;53.928;27.662;2023-04-24T00:57:20;97818.75;;;8.69;100.00
56912;BME280;42800;53.928;27.662;2023-04-24T00:59:47;97811.31;;;8.62;100.00
56912;BME280;42800;53.928;27.662;2023-04-24T01:02:13;97812.13;;;8.66;100.00
56912;BME280;42800;53.928;27.662;2023-04-24T01:04:40;97819.13;;;8.64;100.00
56912;BME280;42800;53.928;27.662;2023-04-24T01:07:06;97817.53;;;8.59;100.00
56912;BME280;42800;53.928;27.662;2023-04-24T01:09:36;97807.38;;;8.56;100.00
56912;BME280;42800;53.928;27.662;2023-04-24T01:12:03;97804.63;;;8.49;100.00
56912;BME280;42800;53.928;27.662;2023-04-24T01:14:29;97801.50;;;8.47;100.00
56912;BME280;42800;53.928;27.662;2023-04-24T01:16:56;97803.06;;;8.48;100.00
56912;BME280;42800;53.928;27.662;2023-04-24T01:19:23;97799.94;;;8.49;100.00
56912;BME280;42800;53.928;27.662;2023-04-24T01:21:51;97799.56;;;8.47;100.00
56912;BME280;42800;53.928;27.662;2023-04-24T01:24:19;97796.81;;;8.40;100.00
56912;BME280;42800;53.928;27.662;2023-04-24T01:26:46;97797.94;;;8.39;100.00
56912;BME280;42800;53.928;27.662;2023-04-24T01:29:12;97795.16;;;8.36;100.00
56912;BME280;42800;53.928;27.662;2023-04-24T01:31:38;97792.13;;;8.44;100.00
56912;BME280;42800;53.928;27.662;2023-04-24T01:34:05;97792.91;;;8.41;100.00
56912;BME280;42800;53.928;27.662;2023-04-24T01:36:31;97785.00;;;8.29;100.00
56912;BME280;42800;53.928;27.662;2023-04-24T01:38:59;97787.41;;;8.38;100.00
56912;BME280;42800;53.928;27.662;2023-04-24T01:41:26;97785.00;;;8.33;100.00
56912;BME280;42800;53.928;27.662;2023-04-24T01:43:53;97790.09;;;8.27;100.00
56912;BME280;42800;53.928;27.662;2023-04-24T01:46:20;97776.00;;;8.18;100.00
56912;BME280;42800;53.928;27.662;2023-04-24T01:48:46;97780.66;;;8.14;100.00
56912;BME280;42800;53.928;27.662;2023-04-24T01:51:12;97779.84;;;8.10;100.00
56912;BME280;42800;53.928;27.662;2023-04-24T01:53:38;97778.28;;;8.12;100.00
56912;BME280;42800;53.928;27.662;2023-04-24T01:56:04;97773.59;;;8.13;100.00
56912;BME280;42800;53.928;27.662;2023-04-24T01:58:31;97776.38;;;8.16;100.00
56912;BME280;42800;53.928;27.662;2023-04-24T02:00:57;97781.44;;;8.18;100.00
56912;BME280;42800;53.928;27.662;2023-04-24T02:03:24;97775.97;;;8.14;100.00
56912;BME280;42800;53.928;27.662;2023-04-24T02:05:50;97767.78;;;8.14;100.00
56912;BME280;42800;53.928;27.662;2023-04-24T02:08:16;97768.16;;;8.13;100.00
56912;BME280;42800;53.928;27.662;2023-04-24T02:10:42;97761.94;;;8.16;100.00
56912;BME280;42800;53.928;27.662;2023-04-24T02:13:08;97768.97;;;8.13;100.00
56912;BME280;42800;53.928;27.662;2023-04-24T02:15:35;97764.63;;;8.12;100.00
56912;BME280;42800;53.928;27.662;2023-04-24T02:18:01;97759.19;;;8.12;100.00
56912;BME280;42800;53.928;27.662;2023-04-24T02:20:27;97756.41;;;8.05;100.00
56912;BME280;42800;53.928;27.662;2023-04-24T02:22:53;97759.94;;;8.09;100.00
56912;BME280;42800;53.928;27.662;2023-04-24T02:25:19;97766.53;;;7.97;100.00
56912;BME280;42800;53.928;27.662;2023-04-24T02:27:45;97760.38;;;8.15;100.00
56912;BME280;42800;53.928;27.662;2023-04-24T02:30:11;97758.06;;;8.17;100.00
56912;BME280;42800;53.928;27.662;2023-04-24T02:32:38;97763.06;;;8.08;100.00
56912;BME280;42800;53.928;27.662;2023-04-24T02:35:05;97766.56;;;8.05;100.00
56912;BME280;42800;53.928;27.662;2023-04-24T02:37:31;97766.50;;;7.90;100.00
56912;BME280;42800;53.928;27.662;2023-04-24T02:39:57;97765.31;;;7.91;100.00
56912;BME280;42800;53.928;27.662;2023-04-24T02:42:23;97764.88;;;7.82;100.00
56912;BME280;42800;53.928;27.662;2023-04-24T02:44:49;97778.53;;;7.86;100.00
56912;BME280;42800;53.928;27.662;2023-04-24T02:47:16;97775.84;;;7.93;100.00
56912;BME280;42800;53.928;27.662;2023-04-24T02:49:43;97769.53;;;7.82;100.00
56912;BME280;42800;53.928;27.662;2023-04-24T02:52:09;97773.47;;;7.88;100.00
56912;BME280;42800;53.928;27.662;2023-04-24T02:54:35;97782.09;;;7.90;100.00
56912;BME280;42800;53.928;27.662;2023-04-24T02:57:01;97776.25;;;7.95;100.00
56912;BME280;42800;53.928;27.662;2023-04-24T02:59:27;97774.28;;;7.92;100.00
56912;BME280;42800;53.928;27.662;2023-04-24T03:01:54;97768.09;;;7.98;100.00
56912;BME280;42800;53.928;27.662;2023-04-24T03:04:20;97759.53;;;8.00;100.00
56912;BME280;42800;53.928;27.662;2023-04-24T03:06:46;97768.84;;;7.99;100.00
56912;BME280;42800;53.928;27.662;2023-04-24T03:09:12;97773.19;;;8.00;100.00
56912;BME280;42800;53.928;27.662;2023-04-24T03:11:38;97780.44;;;7.78;100.00
56912;BME280;42800;53.928;27.662;2023-04-24T03:14:04;97784.88;;;8.00;100.00
56912;BME280;42800;53.928;27.662;2023-04-24T03:16:30;97770.84;;;8.06;100.00
56912;BME280;42800;53.928;27.662;2023-04-24T03:18:56;97769.00;;;8.20;100.00
56912;BME280;42800;53.928;27.662;2023-04-24T03:21:22;97763.16;;;8.25;100.00
56912;BME280;42800;53.928;27.662;2023-04-24T03:23:49;97765.53;;;8.31;100.00
56912;BME280;42800;53.928;27.662;2023-04-24T03:26:15;97758.56;;;8.40;100.00
56912;BME280;42800;53.928;27.662;2023-04-24T03:28:40;97772.00;;;9.06;100.00
56912;BME280;42800;53.928;27.662;2023-04-24T03:31:06;97786.06;;;9.73;100.00
56912;BME280;42800;53.928;27.662;2023-04-24T03:33:32;97846.25;;;10.16;100.00
56912;BME280;42800;53.928;27.662;2023-04-24T03:35:58;97938.16;;;10.70;100.00
56912;BME280;42800;53.928;27.662;2023-04-24T03:38:24;98005.78;;;11.23;100.00
56912;BME280;42800;53.928;27.662;2023-04-24T03:40:51;98078.53;;;11.67;100.00
56912;BME280;42800;53.928;27.662;2023-04-24T03:43:17;98118.78;;;12.10;100.00
56912;BME280;42800;53.928;27.662;2023-04-24T03:45:42;98195.28;;;12.18;100.00
56912;BME280;42800;53.928;27.662;2023-04-24T03:48:09;98215.81;;;12.77;100.00
56912;BME280;42800;53.928;27.662;2023-04-24T03:50:34;98257.00;;;12.84;100.00
56912;BME280;42800;53.928;27.662;2023-04-24T03:53:00;98289.44;;;13.14;100.00
56912;BME280;42800;53.928;27.662;2023-04-24T03:55:26;98306.88;;;13.52;100.00
56912;BME280;42800;53.928;27.662;2023-04-24T03:57:53;98342.91;;;13.72;100.00
56912;BME280;42800;53.928;27.662;2023-04-24T04:00:19;98346.25;;;13.49;100.00
56912;BME280;42800;53.928;27.662;2023-04-24T04:02:46;98325.34;;;12.89;100.00
56912;BME280;42800;53.928;27.662;2023-04-24T04:05:12;98280.53;;;11.90;100.00
56912;BME280;42800;53.928;27.662;2023-04-24T04:07:38;98244.81;;;11.97;100.00
56912;BME280;42800;53.928;27.662;2023-04-24T04:10:04;98169.19;;;10.99;100.00
56912;BME280;42800;53.928;27.662;2023-04-24T04:12:32;98167.63;;;11.27;100.00
56912;BME280;42800;53.928;27.662;2023-04-24T04:14:58;98127.28;;;10.88;100.00
56912;BME280;42800;53.928;27.662;2023-04-24T04:17:24;98099.88;;;10.74;100.00
56912;BME280;42800;53.928;27.662;2023-04-24T04:19:50;98068.94;;;10.66;100.00
56912;BME280;42800;53.928;27.662;2023-04-24T04:22:16;98010.56;;;10.01;100.00
56912;BME280;42800;53.928;27.662;2023-04-24T04:24:42;97986.69;;;9.98;100.00
56912;BME280;42800;53.928;27.662;2023-04-24T04:27:08;97965.50;;;9.59;100.00
56912;BME280;42800;53.928;27.662;2023-04-24T04:29:34;97936.22;;;9.99;100.00
56912;BME280;42800;53.928;27.662;2023-04-24T04:32:01;97943.66;;;10.06;100.00
56912;BME280;42800;53.928;27.662;2023-04-24T04:34:27;97928.78;;;9.93;100.00
56912;BME280;42800;53.928;27.662;2023-04-24T04:36:54;97935.81;;;9.65;100.00
56912;BME280;42800;53.928;27.662;2023-04-24T04:39:20;97900.25;;;9.90;100.00
56912;BME280;42800;53.928;27.662;2023-04-24T04:41:46;97908.09;;;10.17;100.00
56912;BME280;42800;53.928;27.662;2023-04-24T04:44:14;97947.56;;;10.58;100.00
56912;BME280;42800;53.928;27.662;2023-04-24T04:46:40;97957.34;;;10.09;100.00
56912;BME280;42800;53.928;27.662;2023-04-24T04:49:07;97965.19;;;10.57;100.00
56912;BME280;42800;53.928;27.662;2023-04-24T04:51:34;97986.25;;;11.07;100.00
56912;BME280;42800;53.928;27.662;2023-04-24T04:54:00;98047.38;;;10.97;100.00
56912;BME280;42800;53.928;27.662;2023-04-24T04:56:26;98039.91;;;11.04;100.00
56912;BME280;42800;53.928;27.662;2023-04-24T04:58:51;98059.88;;;11.05;100.00
56912;BME280;42800;53.928;27.662;2023-04-24T05:01:17;98044.63;;;10.82;100.00
56912;BME280;42800;53.928;27.662;2023-04-24T05:03:43;98007.84;;;10.80;100.00
56912;BME280;42800;53.928;27.662;2023-04-24T05:06:10;98007.84;;;10.80;100.00
56912;BME280;42800;53.928;27.662;2023-04-24T05:08:36;98015.28;;;10.76;100.00
56912;BME280;42800;53.928;27.662;2023-04-24T05:11:02;98000.00;;;10.75;100.00
56912;BME280;42800;53.928;27.662;2023-04-24T05:13:27;98025.88;;;10.74;100.00
56912;BME280;42800;53.928;27.662;2023-04-24T05:15:53;98017.66;;;10.49;100.00
56912;BME280;42800;53.928;27.662;2023-04-24T05:18:19;97998.06;;;10.32;100.00
56912;BME280;42800;53.928;27.662;2023-04-24T05:20:45;97976.19;;;10.43;100.00
56912;BME280;42800;53.928;27.662;2023-04-24T05:23:12;97980.47;;;10.44;100.00
56912;BME280;42800;53.928;27.662;2023-04-24T05:25:38;97971.84;;;10.71;100.00
56912;BME280;42800;53.928;27.662;2023-04-24T05:28:05;98021.09;;;11.14;100.00
56912;BME280;42800;53.928;27.662;2023-04-24T05:30:31;98078.19;;;11.51;100.00
56912;BME280;42800;53.928;27.662;2023-04-24T05:32:57;98119.50;;;12.21;100.00
56912;BME280;42800;53.928;27.662;2023-04-24T05:35:23;98220.66;;;14.00;100.00
56912;BME280;42800;53.928;27.662;2023-04-24T05:37:49;98349.84;;;14.74;100.00
56912;BME280;42800;53.928;27.662;2023-04-24T05:40:15;98369.75;;;14.89;100.00
56912;BME280;42800;53.928;27.662;2023-04-24T05:42:41;98406.34;;;16.32;100.00
56912;BME280;42800;53.928;27.662;2023-04-24T05:45:08;98441.59;;;16.94;100.00
56912;BME280;42800;53.928;27.662;2023-04-24T05:47:37;98436.25;;;16.17;100.00
56912;BME280;42800;53.928;27.662;2023-04-24T05:50:04;98414.94;;;15.90;100.00
56912;BME280;42800;53.928;27.662;2023-04-24T05:52:30;98388.28;;;15.19;100.00
56912;BME280;42800;53.928;27.662;2023-04-24T05:54:56;98421.47;;;15.15;100.00
56912;BME280;42800;53.928;27.662;2023-04-24T05:57:22;98402.09;;;15.19;100.00
56912;BME280;42800;53.928;27.662;2023-04-24T05:59:48;98440.50;;;16.21;100.00
56912;BME280;42800;53.928;27.662;2023-04-24T06:02:14;98462.59;;;17.32;96.86
56912;BME280;42800;53.928;27.662;2023-04-24T06:04:40;98462.06;;;17.01;97.83
56912;BME280;42800;53.928;27.662;2023-04-24T06:07:06;98489.28;;;17.82;87.77
56912;BME280;42800;53.928;27.662;2023-04-24T06:09:32;98475.03;;;18.49;88.09
56912;BME280;42800;53.928;27.662;2023-04-24T06:11:58;98478.41;;;17.91;88.77
56912;BME280;42800;53.928;27.662;2023-04-24T06:14:25;98470.75;;;16.32;97.16
56912;BME280;42800;53.928;27.662;2023-04-24T06:16:51;98459.84;;;17.12;97.48
56912;BME280;42800;53.928;27.662;2023-04-24T06:19:17;98471.75;;;17.49;91.52
56912;BME280;42800;53.928;27.662;2023-04-24T06:21:43;98477.63;;;18.72;88.79
56912;BME280;42800;53.928;27.662;2023-04-24T06:24:09;98486.38;;;18.54;84.59
56912;BME280;42800;53.928;27.662;2023-04-24T06:26:35;98496.44;;;19.68;78.25
56912;BME280;42800;53.928;27.662;2023-04-24T06:29:01;98495.88;;;20.98;73.48
56912;BME280;42800;53.928;27.662;2023-04-24T06:31:28;98504.59;;;20.27;71.63
56912;BME280;42800;53.928;27.662;2023-04-24T06:33:54;98506.88;;;21.58;68.56
56912;BME280;42800;53.928;27.662;2023-04-24T06:36:20;98520.53;;;21.56;66.10
56912;BME280;42800;53.928;27.662;2023-04-24T06:38:46;98513.38;;;20.51;67.53
56912;BME280;42800;53.928;27.662;2023-04-24T06:41:12;98515.03;;;20.22;67.93
56912;BME280;42800;53.928;27.662;2023-04-24T06:43:38;98507.53;;;21.05;68.71
56912;BME280;42800;53.928;27.662;2023-04-24T06:46:04;98513.03;;;21.31;65.64
56912;BME280;42800;53.928;27.662;2023-04-24T06:48:30;98516.78;;;22.52;63.10
56912;BME280;42800;53.928;27.662;2023-04-24T06:50:56;98508.25;;;21.53;64.44
56912;BME280;42800;53.928;27.662;2023-04-24T06:53:22;98505.81;;;21.21;66.52
56912;BME280;42800;53.928;27.662;2023-04-24T06:55:48;98511.09;;;19.69;69.96
56912;BME280;42800;53.928;27.662;2023-04-24T06:58:14;98510.16;;;19.46;68.75
56912;BME280;42800;53.928;27.662;2023-04-24T07:00:41;98503.41;;;20.75;69.12
56912;BME280;42800;53.928;27.662;2023-04-24T07:03:07;98508.91;;;21.57;65.56
56912;BME280;42800;53.928;27.662;2023-04-24T07:05:33;98515.13;;;21.61;63.98
56912;BME280;42800;53.928;27.662;2023-04-24T07:08:00;98510.50;;;21.99;61.84
56912;BME280;42800;53.928;27.662;2023-04-24T07:10:26;98516.44;;;23.09;59.36
56912;BME280;42800;53.928;27.662;2023-04-24T07:12:53;98520.22;;;23.94;58.63
56912;BME280;42800;53.928;27.662;2023-04-24T07:15:19;98518.22;;;21.42;59.18
56912;BME280;42800;53.928;27.662;2023-04-24T07:17:46;98520.91;;;22.29;58.29
56912;BME280;42800;53.928;27.662;2023-04-24T07:20:12;98516.38;;;21.26;60.39
56912;BME280;42800;53.928;27.662;2023-04-24T07:22:40;98515.00;;;22.86;59.13
56912;BME280;42800;53.928;27.662;2023-04-24T07:25:07;98518.72;;;24.17;56.40
56912;BME280;42800;53.928;27.662;2023-04-24T07:27:34;98516.97;;;22.18;58.70
56912;BME280;42800;53.928;27.662;2023-04-24T07:30:01;98508.50;;;22.98;58.57
56912;BME280;42800;53.928;27.662;2023-04-24T07:32:27;98514.19;;;24.86;54.50
56912;BME280;42800;53.928;27.662;2023-04-24T07:34:53;98507.88;;;24.10;56.05
56912;BME280;42800;53.928;27.662;2023-04-24T07:37:18;98510.00;;;23.64;56.39
56912;BME280;42800;53.928;27.662;2023-04-24T07:39:46;98509.00;;;24.46;54.84
56912;BME280;42800;53.928;27.662;2023-04-24T07:42:12;98512.97;;;25.26;54.18
56912;BME280;42800;53.928;27.662;2023-04-24T07:44:38;98506.47;;;25.35;52.82
56912;BME280;42800;53.928;27.662;2023-04-24T07:47:04;98525.19;;;24.00;53.78
56912;BME280;42800;53.928;27.662;2023-04-24T07:49:30;98515.38;;;24.37;53.22
56912;BME280;42800;53.928;27.662;2023-04-24T07:51:56;98502.94;;;22.49;56.73
56912;BME280;42800;53.928;27.662;2023-04-24T07:54:21;98508.19;;;22.96;55.90
56912;BME280;42800;53.928;27.662;2023-04-24T07:56:48;98507.78;;;22.48;56.50
56912;BME280;42800;53.928;27.662;2023-04-24T07:59:15;98509.25;;;23.45;55.23
56912;BME280;42800;53.928;27.662;2023-04-24T08:01:40;98503.47;;;23.67;54.22
56912;BME280;42800;53.928;27.662;2023-04-24T08:04:07;98509.56;;;22.83;53.85
56912;BME280;42800;53.928;27.662;2023-04-24T08:06:33;98508.03;;;23.00;53.63
56912;BME280;42800;53.928;27.662;2023-04-24T08:08:59;98496.06;;;23.36;53.50
56912;BME280;42800;53.928;27.662;2023-04-24T08:11:26;98504.09;;;22.70;53.67
56912;BME280;42800;53.928;27.662;2023-04-24T08:13:53;98503.72;;;22.40;53.41
56912;BME280;42800;53.928;27.662;2023-04-24T08:16:20;98497.31;;;23.08;51.93
56912;BME280;42800;53.928;27.662;2023-04-24T08:18:46;98498.31;;;23.84;51.21
56912;BME280;42800;53.928;27.662;2023-04-24T08:21:11;98509.22;;;23.63;51.46
56912;BME280;42800;53.928;27.662;2023-04-24T08:23:42;98500.31;;;24.26;50.75
56912;BME280;42800;53.928;27.662;2023-04-24T08:26:08;98495.88;;;22.66;51.46
56912;BME280;42800;53.928;27.662;2023-04-24T08:28:34;98506.63;;;22.27;50.76
56912;BME280;42800;53.928;27.662;2023-04-24T08:31:00;98498.09;;;23.08;50.60
56912;BME280;42800;53.928;27.662;2023-04-24T08:33:26;98497.72;;;22.60;49.94
56912;BME280;42800;53.928;27.662;2023-04-24T08:35:52;98498.75;;;23.91;50.27
56912;BME280;42800;53.928;27.662;2023-04-24T08:38:18;98490.63;;;23.33;48.55
56912;BME280;42800;53.928;27.662;2023-04-24T08:40:44;98502.28;;;23.40;48.63
56912;BME280;42800;53.928;27.662;2023-04-24T08:43:13;98497.88;;;22.75;49.32
56912;BME280;42800;53.928;27.662;2023-04-24T08:45:40;98485.50;;;22.94;49.47
56912;BME280;42800;53.928;27.662;2023-04-24T08:48:07;98489.06;;;23.32;47.58
56912;BME280;42800;53.928;27.662;2023-04-24T08:50:33;98502.22;;;23.77;46.59
56912;BME280;42800;53.928;27.662;2023-04-24T08:53:01;98489.97;;;23.56;46.89
56912;BME280;42800;53.928;27.662;2023-04-24T08:55:30;98481.22;;;23.82;46.49
56912;BME280;42800;53.928;27.662;2023-04-24T08:57:56;98481.31;;;23.17;47.05
56912;BME280;42800;53.928;27.662;2023-04-24T09:00:23;98484.69;;;23.58;46.99
56912;BME280;42800;53.928;27.662;2023-04-24T09:02:49;98482.91;;;23.88;47.22
56912;BME280;42800;53.928;27.662;2023-04-24T09:05:17;98483.69;;;25.03;45.50
56912;BME280;42800;53.928;27.662;2023-04-24T09:07:45;98481.16;;;24.33;45.49
56912;BME280;42800;53.928;27.662;2023-04-24T09:10:11;98475.50;;;26.18;44.31
56912;BME280;42800;53.928;27.662;2023-04-24T09:12:38;98472.31;;;26.11;43.40
56912;BME280;42800;53.928;27.662;2023-04-24T09:15:05;98478.47;;;23.63;45.54
56912;BME280;42800;53.928;27.662;2023-04-24T09:17:33;98470.06;;;23.73;46.41
56912;BME280;42800;53.928;27.662;2023-04-24T09:19:59;98478.13;;;23.61;46.42
56912;BME280;42800;53.928;27.662;2023-04-24T09:22:29;98459.25;;;23.29;46.58
56912;BME280;42800;53.928;27.662;2023-04-24T09:25:01;98470.34;;;23.84;46.66
56912;BME280;42800;53.928;27.662;2023-04-24T09:27:28;98451.94;;;23.22;45.17
56912;BME280;42800;53.928;27.662;2023-04-24T09:29:54;98449.59;;;24.00;45.26
56912;BME280;42800;53.928;27.662;2023-04-24T09:32:21;98455.72;;;25.09;44.55
56912;BME280;42800;53.928;27.662;2023-04-24T09:34:47;98456.41;;;25.43;44.46
56912;BME280;42800;53.928;27.662;2023-04-24T09:37:28;98454.56;;;23.53;44.97
56912;BME280;42800;53.928;27.662;2023-04-24T09:40:07;98446.78;;;24.81;45.03
56912;BME280;42800;53.928;27.662;2023-04-24T09:42:33;98453.31;;;24.63;43.42
56912;BME280;42800;53.928;27.662;2023-04-24T09:44:59;98448.44;;;23.64;44.56
56912;BME280;42800;53.928;27.662;2023-04-24T09:47:25;98437.09;;;24.10;44.23
56912;BME280;42800;53.928;27.662;2023-04-24T09:49:57;98436.25;;;23.43;45.01
56912;BME280;42800;53.928;27.662;2023-04-24T09:52:23;98439.06;;;23.85;45.33
56912;BME280;42800;53.928;27.662;2023-04-24T09:54:53;98428.81;;;24.87;45.16
56912;BME280;42800;53.928;27.662;2023-04-24T09:57:19;98426.09;;;25.32;44.51
56912;BME280;42800;53.928;27.662;2023-04-24T09:59:46;98436.69;;;23.51;45.82
56912;BME280;42800;53.928;27.662;2023-04-24T10:02:17;98431.44;;;22.51;46.63
56912;BME280;42800;53.928;27.662;2023-04-24T10:04:54;98433.72;;;21.85;47.84
56912;BME280;42800;53.928;27.662;2023-04-24T10:07:20;98436.56;;;22.62;47.68
56912;BME280;42800;53.928;27.662;2023-04-24T10:09:46;98430.25;;;20.62;48.36
56912;BME280;42800;53.928;27.662;2023-04-24T10:12:14;98425.72;;;20.90;48.77
56912;BME280;42800;53.928;27.662;2023-04-24T10:14:41;98429.06;;;21.29;48.54
56912;BME280;42800;53.928;27.662;2023-04-24T10:17:07;98417.09;;;20.62;49.71
56912;BME280;42800;53.928;27.662;2023-04-24T10:19:33;98415.03;;;20.41;50.09
56912;BME280;42800;53.928;27.662;2023-04-24T10:22:01;98416.47;;;20.45;49.88
56912;BME280;42800;53.928;27.662;2023-04-24T10:24:28;98421.78;;;20.65;49.24
56912;BME280;42800;53.928;27.662;2023-04-24T10:26:55;98413.59;;;20.84;48.98
56912;BME280;42800;53.928;27.662;2023-04-24T10:29:23;98409.97;;;20.96;48.62
56912;BME280;42800;53.928;27.662;2023-04-24T10:31:50;98426.34;;;20.94;48.76
56912;BME280;42800;53.928;27.662;2023-04-24T10:34:17;98422.06;;;21.02;48.79
56912;BME280;42800;53.928;27.662;2023-04-24T10:36:48;98416.94;;;20.79;48.18
56912;BME280;42800;53.928;27.662;2023-04-24T10:39:16;98409.94;;;20.74;47.91
56912;BME280;42800;53.928;27.662;2023-04-24T10:41:43;98404.69;;;20.54;47.66
56912;BME280;42800;53.928;27.662;2023-04-24T10:44:10;98409.50;;;20.28;47.53
56912;BME280;42800;53.928;27.662;2023-04-24T10:46:37;98416.22;;;19.92;47.94
56912;BME280;42800;53.928;27.662;2023-04-24T10:49:04;98412.03;;;21.27;47.93
56912;BME280;42800;53.928;27.662;2023-04-24T10:51:47;98415.19;;;20.72;47.77
56912;BME280;42800;53.928;27.662;2023-04-24T10:54:24;98429.13;;;19.99;48.47
56912;BME280;42800;53.928;27.662;2023-04-24T10:56:51;98415.97;;;19.61;48.60
56912;BME280;42800;53.928;27.662;2023-04-24T10:59:24;98421.91;;;19.89;48.78
56912;BME280;42800;53.928;27.662;2023-04-24T11:01:53;98410.47;;;19.87;48.73
56912;BME280;42800;53.928;27.662;2023-04-24T11:04:29;98407.22;;;19.63;49.30
56912;BME280;42800;53.928;27.662;2023-04-24T11:06:55;98415.66;;;19.46;48.61
56912;BME280;42800;53.928;27.662;2023-04-24T11:09:21;98417.47;;;19.79;48.77
56912;BME280;42800;53.928;27.662;2023-04-24T11:11:47;98418.63;;;19.52;49.70
56912;BME280;42800;53.928;27.662;2023-04-24T11:14:14;98414.63;;;19.27;49.08
56912;BME280;42800;53.928;27.662;2023-04-24T11:16:44;98412.75;;;18.95;49.48
56912;BME280;42800;53.928;27.662;2023-04-24T11:19:20;98411.44;;;19.00;49.92
56912;BME280;42800;53.928;27.662;2023-04-24T11:21:48;98407.34;;;18.75;50.23
56912;BME280;42800;53.928;27.662;2023-04-24T11:24:29;98410.16;;;18.88;50.49
56912;BME280;42800;53.928;27.662;2023-04-24T11:26:57;98400.28;;;18.87;50.36
56912;BME280;42800;53.928;27.662;2023-04-24T11:29:38;98398.63;;;19.57;49.41
56912;BME280;42800;53.928;27.662;2023-04-24T11:32:15;98397.72;;;20.24;49.12
56912;BME280;42800;53.928;27.662;2023-04-24T11:34:45;98394.03;;;20.27;49.46
56912;BME280;42800;53.928;27.662;2023-04-24T11:37:12;98388.75;;;19.94;49.42
56912;BME280;42800;53.928;27.662;2023-04-24T11:39:38;98400.06;;;19.49;50.21
56912;BME280;42800;53.928;27.662;2023-04-24T11:42:04;98388.50;;;19.38;50.28
56912;BME280;42800;53.928;27.662;2023-04-24T11:44:33;98386.06;;;20.04;49.64
56912;BME280;42800;53.928;27.662;2023-04-24T11:46:59;98409.81;;;19.83;49.48
56912;BME280;42800;53.928;27.662;2023-04-24T11:49:25;98391.13;;;19.03;50.26
56912;BME280;42800;53.928;27.662;2023-04-24T11:51:55;98392.47;;;19.11;50.65
56912;BME280;42800;53.928;27.662;2023-04-24T11:54:21;98378.50;;;18.86;50.84
56912;BME280;42800;53.928;27.662;2023-04-24T11:56:47;98388.19;;;19.61;50.87
56912;BME280;42800;53.928;27.662;2023-04-24T11:59:15;98386.09;;;19.78;50.16
56912;BME280;42800;53.928;27.662;2023-04-24T12:01:44;98379.19;;;19.57;49.72
56912;BME280;42800;53.928;27.662;2023-04-24T12:04:10;98373.03;;;18.82;50.60
56912;BME280;42800;53.928;27.662;2023-04-24T12:06:37;98372.56;;;19.00;50.72
56912;BME280;42800;53.928;27.662;2023-04-24T12:09:03;98373.03;;;19.24;51.16
56912;BME280;42800;53.928;27.662;2023-04-24T12:11:29;98372.94;;;18.86;51.06
56912;BME280;42800;53.928;27.662;2023-04-24T12:13:56;98371.03;;;18.53;52.29
56912;BME280;42800;53.928;27.662;2023-04-24T12:16:22;98368.31;;;18.66;51.80
56912;BME280;42800;53.928;27.662;2023-04-24T12:18:51;98375.66;;;19.02;51.77
56912;BME280;42800;53.928;27.662;2023-04-24T12:21:18;98368.31;;;18.95;51.47
56912;BME280;42800;53.928;27.662;2023-04-24T12:23:44;98356.59;;;19.55;50.71
56912;BME280;42800;53.928;27.662;2023-04-24T12:26:11;98348.47;;;19.48;49.93
56912;BME280;42800;53.928;27.662;2023-04-24T12:28:38;98342.91;;;19.61;50.26
56912;BME280;42800;53.928;27.662;2023-04-24T12:31:04;98347.38;;;19.20;51.08
56912;BME280;42800;53.928;27.662;2023-04-24T12:33:33;98351.03;;;19.30;51.98
56912;BME280;42800;53.928;27.662;2023-04-24T12:35:59;98353.72;;;19.33;51.44
56912;BME280;42800;53.928;27.662;2023-04-24T12:38:27;98339.16;;;19.67;51.21
56912;BME280;42800;53.928;27.662;2023-04-24T12:41:02;98336.28;;;20.18;50.89
56912;BME280;42800;53.928;27.662;2023-04-24T12:43:30;98323.19;;;20.41;50.94
56912;BME280;42800;53.928;27.662;2023-04-24T12:45:56;98335.88;;;20.07;51.58